Monterey, Indiana
Current Conditions -  °F | °C
As of 11:35 PM on Friday 24 Oct 2014 (Local Time) from KOXI Reporting Station
Scattered Clouds Scattered Clouds  
Wind Chill: 11°   Ceiling: Unl
Heat Index: 11°   Visibility: 10mi
Dew Point:   Wind: 3mph
Humidity: 84%   Direction: 200°SSW
Pressure: 29.94"   Gusts: NA
Location:  41.16°N, 86.48°W
Report Text: KOXI 250435Z AUTO 20003KT 10SM SCT110 11/08 A2994 RMK AO1 T01090083
Loading
Personal Weather Stations






























Interactive Weather Map
Tropical Storm Tracking
New forecast layout! Learn more

10-Day Weather Forecast

Advertisements
Track Severe Weather on mobile